sensor_id;sensor_type;location;lat;lon;timestamp;P1;durP1;ratioP1;P2;durP2;ratioP2
66472;SDS011;53291;51.680;8.344;2022-08-27T07:06:15;11.90;;;4.95;;
66472;SDS011;53291;51.680;8.344;2022-08-27T07:08:41;12.75;;;4.45;;
66472;SDS011;53291;51.680;8.344;2022-08-27T07:11:08;11.48;;;3.13;;
66472;SDS011;53291;51.680;8.344;2022-08-27T07:13:35;25.00;;;8.85;;
66472;SDS011;53291;51.680;8.344;2022-08-27T07:16:05;28.33;;;10.18;;
66472;SDS011;53291;51.680;8.344;2022-08-27T07:18:31;11.68;;;3.00;;
66472;SDS011;53291;51.680;8.344;2022-08-27T07:20:57;13.80;;;4.55;;
66472;SDS011;53291;51.680;8.344;2022-08-27T07:23:22;7.25;;;2.40;;
66472;SDS011;53291;51.680;8.344;2022-08-27T07:25:48;7.45;;;2.78;;
66472;SDS011;53291;51.680;8.344;2022-08-27T07:28:13;5.40;;;1.63;;
66472;SDS011;53291;51.680;8.344;2022-08-27T07:30:39;8.20;;;1.40;;
66472;SDS011;53291;51.680;8.344;2022-08-27T07:33:04;5.28;;;1.80;;
66472;SDS011;53291;51.680;8.344;2022-08-27T07:35:30;10.70;;;3.60;;
66472;SDS011;53291;51.680;8.344;2022-08-27T07:37:55;7.85;;;2.38;;
66472;SDS011;53291;51.680;8.344;2022-08-27T07:40:21;6.50;;;2.60;;
66472;SDS011;53291;51.680;8.344;2022-08-27T07:42:46;5.95;;;1.35;;
66472;SDS011;53291;51.680;8.344;2022-08-27T07:45:30;4.82;;;1.20;;
66472;SDS011;53291;51.680;8.344;2022-08-27T07:47:56;8.80;;;3.00;;
66472;SDS011;53291;51.680;8.344;2022-08-27T07:50:21;6.30;;;1.75;;
66472;SDS011;53291;51.680;8.344;2022-08-27T07:52:48;5.00;;;1.58;;
66472;SDS011;53291;51.680;8.344;2022-08-27T07:55:14;5.80;;;1.40;;
66472;SDS011;53291;51.680;8.344;2022-08-27T07:57:40;3.65;;;1.83;;
66472;SDS011;53291;51.680;8.344;2022-08-27T08:00:06;5.47;;;1.40;;
66472;SDS011;53291;51.680;8.344;2022-08-27T08:02:37;5.00;;;2.15;;
66472;SDS011;53291;51.680;8.344;2022-08-27T08:05:04;6.80;;;1.80;;
66472;SDS011;53291;51.680;8.344;2022-08-27T08:07:30;6.00;;;1.80;;
66472;SDS011;53291;51.680;8.344;2022-08-27T08:09:57;7.88;;;2.40;;
66472;SDS011;53291;51.680;8.344;2022-08-27T08:12:23;8.82;;;2.53;;
66472;SDS011;53291;51.680;8.344;2022-08-27T08:14:49;8.95;;;3.67;;
66472;SDS011;53291;51.680;8.344;2022-08-27T08:17:14;4.80;;;1.55;;
66472;SDS011;53291;51.680;8.344;2022-08-27T08:19:39;7.32;;;1.90;;
66472;SDS011;53291;51.680;8.344;2022-08-27T08:22:05;6.07;;;2.38;;
66472;SDS011;53291;51.680;8.344;2022-08-27T08:24:32;6.22;;;1.35;;
66472;SDS011;53291;51.680;8.344;2022-08-27T08:26:58;4.32;;;1.23;;
66472;SDS011;53291;51.680;8.344;2022-08-27T08:29:23;28.05;;;10.32;;
66472;SDS011;53291;51.680;8.344;2022-08-27T08:31:50;15.02;;;6.97;;
66472;SDS011;53291;51.680;8.344;2022-08-27T08:34:15;7.32;;;1.33;;
66472;SDS011;53291;51.680;8.344;2022-08-27T08:36:40;7.97;;;1.45;;
66472;SDS011;53291;51.680;8.344;2022-08-27T08:39:06;8.30;;;2.42;;
66472;SDS011;53291;51.680;8.344;2022-08-27T08:41:37;5.22;;;1.67;;
66472;SDS011;53291;51.680;8.344;2022-08-27T08:44:13;4.28;;;1.40;;
66472;SDS011;53291;51.680;8.344;2022-08-27T08:46:49;4.03;;;0.93;;
66472;SDS011;53291;51.680;8.344;2022-08-27T08:57:51;4.60;;;1.40;;
66472;SDS011;53291;51.680;8.344;2022-08-27T09:00:25;4.97;;;1.73;;
66472;SDS011;53291;51.680;8.344;2022-08-27T09:02:53;4.07;;;1.45;;
66472;SDS011;53291;51.680;8.344;2022-08-27T09:05:19;4.82;;;0.77;;
66472;SDS011;53291;51.680;8.344;2022-08-27T09:07:51;3.55;;;1.40;;
66472;SDS011;53291;51.680;8.344;2022-08-27T09:10:25;3.67;;;1.27;;
66472;SDS011;53291;51.680;8.344;2022-08-27T09:12:58;3.05;;;0.90;;
66472;SDS011;53291;51.680;8.344;2022-08-27T09:15:28;4.10;;;1.00;;
66472;SDS011;53291;51.680;8.344;2022-08-27T09:18:31;2.38;;;0.70;;
66472;SDS011;53291;51.680;8.344;2022-08-27T09:20:50;4.72;;;1.10;;
66472;SDS011;53291;51.680;8.344;2022-08-27T09:25:57;3.83;;;0.95;;
66472;SDS011;53291;51.680;8.344;2022-08-27T09:28:23;3.00;;;1.52;;
66472;SDS011;53291;51.680;8.344;2022-08-27T09:31:11;3.25;;;1.08;;
66472;SDS011;53291;51.680;8.344;2022-08-27T09:33:40;5.45;;;1.63;;
66472;SDS011;53291;51.680;8.344;2022-08-27T09:36:10;3.00;;;1.40;;
66472;SDS011;53291;51.680;8.344;2022-08-27T09:38:39;5.15;;;1.00;;
66472;SDS011;53291;51.680;8.344;2022-08-27T09:41:20;2.55;;;1.52;;
66472;SDS011;53291;51.680;8.344;2022-08-27T09:43:56;4.00;;;1.40;;
66472;SDS011;53291;51.680;8.344;2022-08-27T09:46:33;3.60;;;1.33;;
66472;SDS011;53291;51.680;8.344;2022-08-27T09:49:08;2.80;;;1.58;;
66472;SDS011;53291;51.680;8.344;2022-08-27T09:54:07;3.22;;;1.10;;
66472;SDS011;53291;51.680;8.344;2022-08-27T09:56:35;3.25;;;1.27;;
66472;SDS011;53291;51.680;8.344;2022-08-27T09:59:06;5.45;;;1.83;;
66472;SDS011;53291;51.680;8.344;2022-08-27T10:01:36;3.28;;;0.82;;
66472;SDS011;53291;51.680;8.344;2022-08-27T10:04:23;3.97;;;1.02;;
66472;SDS011;53291;51.680;8.344;2022-08-27T10:06:51;3.08;;;0.82;;
66472;SDS011;53291;51.680;8.344;2022-08-27T10:09:36;3.83;;;0.80;;
66472;SDS011;53291;51.680;8.344;2022-08-27T10:12:14;3.72;;;0.60;;
66472;SDS011;53291;51.680;8.344;2022-08-27T10:14:51;3.08;;;1.10;;
66472;SDS011;53291;51.680;8.344;2022-08-27T10:17:34;2.83;;;1.17;;
66472;SDS011;53291;51.680;8.344;2022-08-27T10:20:24;3.63;;;1.00;;
66472;SDS011;53291;51.680;8.344;2022-08-27T10:23:21;1.63;;;0.70;;
66472;SDS011;53291;51.680;8.344;2022-08-27T10:37:15;3.40;;;1.80;;
66472;SDS011;53291;51.680;8.344;2022-08-27T10:50:20;4.10;;;0.80;;
66472;SDS011;53291;51.680;8.344;2022-08-27T10:52:59;4.35;;;1.73;;
66472;SDS011;53291;51.680;8.344;2022-08-27T10:55:36;3.88;;;1.00;;
66472;SDS011;53291;51.680;8.344;2022-08-27T10:58:23;4.80;;;1.67;;
66472;SDS011;53291;51.680;8.344;2022-08-27T11:06:13;6.38;;;1.52;;
66472;SDS011;53291;51.680;8.344;2022-08-27T11:08:48;3.13;;;1.45;;
66472;SDS011;53291;51.680;8.344;2022-08-27T11:11:32;6.00;;;1.20;;
66472;SDS011;53291;51.680;8.344;2022-08-27T11:14:06;3.35;;;1.05;;
66472;SDS011;53291;51.680;8.344;2022-08-27T11:16:40;3.85;;;1.10;;
66472;SDS011;53291;51.680;8.344;2022-08-27T11:19:15;6.55;;;2.13;;
66472;SDS011;53291;51.680;8.344;2022-08-27T11:21:53;4.72;;;1.42;;
66472;SDS011;53291;51.680;8.344;2022-08-27T11:24:38;3.55;;;1.50;;
66472;SDS011;53291;51.680;8.344;2022-08-27T11:27:08;4.60;;;2.47;;
66472;SDS011;53291;51.680;8.344;2022-08-27T11:29:57;4.40;;;1.55;;
66472;SDS011;53291;51.680;8.344;2022-08-27T11:35:00;5.72;;;1.20;;
66472;SDS011;53291;51.680;8.344;2022-08-27T11:37:41;6.90;;;1.20;;
66472;SDS011;53291;51.680;8.344;2022-08-27T11:42:53;3.85;;;1.65;;
66472;SDS011;53291;51.680;8.344;2022-08-27T11:45:29;3.17;;;0.90;;
66472;SDS011;53291;51.680;8.344;2022-08-27T11:48:13;3.15;;;1.45;;
66472;SDS011;53291;51.680;8.344;2022-08-27T11:50:51;3.20;;;1.73;;
66472;SDS011;53291;51.680;8.344;2022-08-27T11:53:24;4.85;;;1.00;;
66472;SDS011;53291;51.680;8.344;2022-08-27T11:56:08;4.43;;;1.10;;
66472;SDS011;53291;51.680;8.344;2022-08-27T11:58:42;4.63;;;1.65;;
66472;SDS011;53291;51.680;8.344;2022-08-27T12:01:28;5.15;;;1.05;;
66472;SDS011;53291;51.680;8.344;2022-08-27T12:03:59;2.88;;;1.15;;
66472;SDS011;53291;51.680;8.344;2022-08-27T12:06:39;5.18;;;1.35;;
66472;SDS011;53291;51.680;8.344;2022-08-27T12:09:21;5.00;;;1.80;;
66472;SDS011;53291;51.680;8.344;2022-08-27T12:17:13;3.85;;;1.27;;
66472;SDS011;53291;51.680;8.344;2022-08-27T12:19:58;3.22;;;1.30;;
66472;SDS011;53291;51.680;8.344;2022-08-27T12:29:16;7.18;;;2.08;;
66472;SDS011;53291;51.680;8.344;2022-08-27T12:32:03;5.90;;;2.13;;
66472;SDS011;53291;51.680;8.344;2022-08-27T12:34:40;4.88;;;2.15;;
66472;SDS011;53291;51.680;8.344;2022-08-27T12:37:10;4.43;;;1.40;;
66472;SDS011;53291;51.680;8.344;2022-08-27T12:39:37;4.78;;;2.40;;
66472;SDS011;53291;51.680;8.344;2022-08-27T12:42:11;5.28;;;2.45;;
66472;SDS011;53291;51.680;8.344;2022-08-27T12:44:39;3.70;;;1.33;;
66472;SDS011;53291;51.680;8.344;2022-08-27T12:47:07;4.30;;;1.75;;
66472;SDS011;53291;51.680;8.344;2022-08-27T12:49:45;6.45;;;2.30;;
66472;SDS011;53291;51.680;8.344;2022-08-27T12:58:04;4.78;;;1.92;;
66472;SDS011;53291;51.680;8.344;2022-08-27T13:00:37;4.80;;;1.40;;
66472;SDS011;53291;51.680;8.344;2022-08-27T13:03:25;5.65;;;1.92;;
66472;SDS011;53291;51.680;8.344;2022-08-27T13:05:58;6.03;;;2.10;;
66472;SDS011;53291;51.680;8.344;2022-08-27T13:08:27;7.53;;;1.60;;
66472;SDS011;53291;51.680;8.344;2022-08-27T13:10:55;4.43;;;2.58;;
66472;SDS011;53291;51.680;8.344;2022-08-27T13:13:22;5.43;;;2.20;;
66472;SDS011;53291;51.680;8.344;2022-08-27T13:15:53;6.03;;;2.35;;
66472;SDS011;53291;51.680;8.344;2022-08-27T13:18:20;4.75;;;1.27;;
66472;SDS011;53291;51.680;8.344;2022-08-27T13:20:47;3.85;;;1.33;;
66472;SDS011;53291;51.680;8.344;2022-08-27T13:23:16;4.80;;;2.13;;
66472;SDS011;53291;51.680;8.344;2022-08-27T13:28:45;4.32;;;1.52;;
66472;SDS011;53291;51.680;8.344;2022-08-27T13:31:12;4.25;;;1.83;;
66472;SDS011;53291;51.680;8.344;2022-08-27T13:33:38;5.18;;;1.25;;
66472;SDS011;53291;51.680;8.344;2022-08-27T13:36:05;4.22;;;1.48;;
66472;SDS011;53291;51.680;8.344;2022-08-27T13:38:43;4.13;;;1.70;;
66472;SDS011;53291;51.680;8.344;2022-08-27T13:41:17;3.20;;;1.05;;
66472;SDS011;53291;51.680;8.344;2022-08-27T13:43:49;3.45;;;1.63;;
66472;SDS011;53291;51.680;8.344;2022-08-27T13:46:18;5.22;;;1.23;;
66472;SDS011;53291;51.680;8.344;2022-08-27T13:48:48;4.50;;;1.33;;
66472;SDS011;53291;51.680;8.344;2022-08-27T13:51:21;6.35;;;2.28;;
66472;SDS011;53291;51.680;8.344;2022-08-27T13:53:50;6.53;;;2.25;;
66472;SDS011;53291;51.680;8.344;2022-08-27T13:56:36;5.70;;;1.77;;
66472;SDS011;53291;51.680;8.344;2022-08-27T14:01:33;4.93;;;1.17;;
66472;SDS011;53291;51.680;8.344;2022-08-27T14:04:01;6.05;;;2.22;;
66472;SDS011;53291;51.680;8.344;2022-08-27T14:06:39;7.03;;;1.98;;
66472;SDS011;53291;51.680;8.344;2022-08-27T14:11:42;5.32;;;1.15;;
66472;SDS011;53291;51.680;8.344;2022-08-27T14:14:08;3.92;;;1.20;;
66472;SDS011;53291;51.680;8.344;2022-08-27T14:16:33;4.03;;;1.20;;
66472;SDS011;53291;51.680;8.344;2022-08-27T14:21:39;5.18;;;1.38;;
66472;SDS011;53291;51.680;8.344;2022-08-27T14:24:07;5.28;;;2.20;;
66472;SDS011;53291;51.680;8.344;2022-08-27T14:26:33;3.25;;;1.30;;
66472;SDS011;53291;51.680;8.344;2022-08-27T14:28:59;5.50;;;1.23;;
66472;SDS011;53291;51.680;8.344;2022-08-27T14:31:24;3.50;;;1.58;;
66472;SDS011;53291;51.680;8.344;2022-08-27T14:33:51;6.45;;;1.98;;
66472;SDS011;53291;51.680;8.344;2022-08-27T14:36:20;2.90;;;1.77;;
66472;SDS011;53291;51.680;8.344;2022-08-27T14:38:47;4.07;;;2.08;;
66472;SDS011;53291;51.680;8.344;2022-08-27T14:41:14;3.50;;;1.67;;
66472;SDS011;53291;51.680;8.344;2022-08-27T14:43:40;4.70;;;0.98;;
66472;SDS011;53291;51.680;8.344;2022-08-27T14:46:06;3.88;;;1.70;;
66472;SDS011;53291;51.680;8.344;2022-08-27T14:48:37;4.20;;;1.15;;
66472;SDS011;53291;51.680;8.344;2022-08-27T14:51:08;3.10;;;2.13;;
66472;SDS011;53291;51.680;8.344;2022-08-27T14:53:37;5.07;;;1.13;;
66472;SDS011;53291;51.680;8.344;2022-08-27T14:56:02;3.75;;;1.23;;
66472;SDS011;53291;51.680;8.344;2022-08-27T14:58:28;6.00;;;1.27;;
66472;SDS011;53291;51.680;8.344;2022-08-27T15:00:53;3.67;;;1.05;;
66472;SDS011;53291;51.680;8.344;2022-08-27T15:03:21;5.40;;;1.23;;
66472;SDS011;53291;51.680;8.344;2022-08-27T15:05:50;3.47;;;0.85;;
66472;SDS011;53291;51.680;8.344;2022-08-27T15:08:19;2.63;;;1.45;;
66472;SDS011;53291;51.680;8.344;2022-08-27T15:10:45;4.75;;;1.85;;
66472;SDS011;53291;51.680;8.344;2022-08-27T15:13:11;3.88;;;1.05;;
66472;SDS011;53291;51.680;8.344;2022-08-27T15:15:36;3.40;;;1.65;;
66472;SDS011;53291;51.680;8.344;2022-08-27T15:18:03;3.42;;;1.58;;
66472;SDS011;53291;51.680;8.344;2022-08-27T15:20:28;4.35;;;1.00;;
66472;SDS011;53291;51.680;8.344;2022-08-27T15:22:54;4.60;;;1.27;;
66472;SDS011;53291;51.680;8.344;2022-08-27T15:25:19;4.18;;;1.10;;
66472;SDS011;53291;51.680;8.344;2022-08-27T15:27:45;6.60;;;2.13;;
66472;SDS011;53291;51.680;8.344;2022-08-27T15:30:12;4.70;;;1.92;;
66472;SDS011;53291;51.680;8.344;2022-08-27T15:32:40;4.78;;;1.33;;
66472;SDS011;53291;51.680;8.344;2022-08-27T15:35:09;3.42;;;1.17;;
66472;SDS011;53291;51.680;8.344;2022-08-27T15:37:41;6.47;;;1.27;;
66472;SDS011;53291;51.680;8.344;2022-08-27T15:40:07;3.10;;;1.08;;
66472;SDS011;53291;51.680;8.344;2022-08-27T15:42:33;6.75;;;2.40;;
66472;SDS011;53291;51.680;8.344;2022-08-27T15:44:58;3.95;;;1.00;;
66472;SDS011;53291;51.680;8.344;2022-08-27T15:47:24;4.97;;;1.30;;
66472;SDS011;53291;51.680;8.344;2022-08-27T15:49:50;4.88;;;1.33;;
66472;SDS011;53291;51.680;8.344;2022-08-27T15:52:16;4.18;;;1.20;;
66472;SDS011;53291;51.680;8.344;2022-08-27T15:54:44;5.55;;;1.30;;
66472;SDS011;53291;51.680;8.344;2022-08-27T15:57:13;4.18;;;1.80;;
66472;SDS011;53291;51.680;8.344;2022-08-27T15:59:39;5.57;;;1.23;;
66472;SDS011;53291;51.680;8.344;2022-08-27T16:02:04;3.78;;;1.63;;
66472;SDS011;53291;51.680;8.344;2022-08-27T16:04:34;5.03;;;1.38;;
66472;SDS011;53291;51.680;8.344;2022-08-27T16:06:59;4.60;;;1.13;;
66472;SDS011;53291;51.680;8.344;2022-08-27T16:09:24;5.05;;;1.35;;
66472;SDS011;53291;51.680;8.344;2022-08-27T16:11:50;5.47;;;1.10;;
66472;SDS011;53291;51.680;8.344;2022-08-27T16:14:15;5.70;;;1.77;;
66472;SDS011;53291;51.680;8.344;2022-08-27T16:16:42;4.05;;;2.03;;
66472;SDS011;53291;51.680;8.344;2022-08-27T16:21:35;6.93;;;1.30;;
66472;SDS011;53291;51.680;8.344;2022-08-27T16:24:01;4.88;;;1.40;;
66472;SDS011;53291;51.680;8.344;2022-08-27T16:26:28;10.38;;;2.60;;
66472;SDS011;53291;51.680;8.344;2022-08-27T16:28:53;4.82;;;1.52;;
66472;SDS011;53291;51.680;8.344;2022-08-27T16:31:19;4.93;;;2.10;;
66472;SDS011;53291;51.680;8.344;2022-08-27T16:33:45;7.50;;;2.42;;
66472;SDS011;53291;51.680;8.344;2022-08-27T16:36:11;5.40;;;2.03;;
66472;SDS011;53291;51.680;8.344;2022-08-27T16:38:37;5.22;;;1.98;;
66472;SDS011;53291;51.680;8.344;2022-08-27T16:41:02;5.75;;;2.38;;
66472;SDS011;53291;51.680;8.344;2022-08-27T16:43:29;8.00;;;2.05;;
66472;SDS011;53291;51.680;8.344;2022-08-27T16:45:55;6.25;;;1.80;;
66472;SDS011;53291;51.680;8.344;2022-08-27T16:48:23;6.00;;;2.47;;
66472;SDS011;53291;51.680;8.344;2022-08-27T16:51:18;5.90;;;1.83;;
66472;SDS011;53291;51.680;8.344;2022-08-27T16:53:46;7.85;;;2.05;;
66472;SDS011;53291;51.680;8.344;2022-08-27T16:56:14;7.60;;;2.03;;
66472;SDS011;53291;51.680;8.344;2022-08-27T16:58:41;8.75;;;2.53;;
66472;SDS011;53291;51.680;8.344;2022-08-27T17:01:07;7.90;;;2.63;;
66472;SDS011;53291;51.680;8.344;2022-08-27T17:03:56;7.85;;;2.95;;
66472;SDS011;53291;51.680;8.344;2022-08-27T17:06:25;7.57;;;2.42;;
66472;SDS011;53291;51.680;8.344;2022-08-27T17:08:51;8.23;;;3.08;;
66472;SDS011;53291;51.680;8.344;2022-08-27T17:11:19;6.70;;;3.22;;
66472;SDS011;53291;51.680;8.344;2022-08-27T17:13:48;9.70;;;3.35;;
66472;SDS011;53291;51.680;8.344;2022-08-27T17:16:15;11.60;;;3.58;;
66472;SDS011;53291;51.680;8.344;2022-08-27T17:18:44;9.85;;;3.00;;
66472;SDS011;53291;51.680;8.344;2022-08-27T17:21:11;7.32;;;2.78;;
66472;SDS011;53291;51.680;8.344;2022-08-27T17:23:39;11.30;;;3.05;;
66472;SDS011;53291;51.680;8.344;2022-08-27T17:26:08;4.82;;;2.42;;
66472;SDS011;53291;51.680;8.344;2022-08-27T17:28:35;5.60;;;1.90;;
66472;SDS011;53291;51.680;8.344;2022-08-27T17:31:05;9.48;;;3.47;;
66472;SDS011;53291;51.680;8.344;2022-08-27T17:33:39;7.38;;;2.78;;
66472;SDS011;53291;51.680;8.344;2022-08-27T17:36:08;10.80;;;3.05;;
66472;SDS011;53291;51.680;8.344;2022-08-27T17:38:34;7.00;;;2.20;;
66472;SDS011;53291;51.680;8.344;2022-08-27T17:41:07;5.63;;;2.05;;
66472;SDS011;53291;51.680;8.344;2022-08-27T17:43:34;6.60;;;2.60;;
66472;SDS011;53291;51.680;8.344;2022-08-27T17:46:00;4.85;;;2.25;;
66472;SDS011;53291;51.680;8.344;2022-08-27T17:48:25;7.65;;;2.45;;
66472;SDS011;53291;51.680;8.344;2022-08-27T17:50:51;4.38;;;2.55;;
66472;SDS011;53291;51.680;8.344;2022-08-27T17:53:17;9.57;;;4.00;;
66472;SDS011;53291;51.680;8.344;2022-08-27T17:55:43;9.82;;;4.32;;
66472;SDS011;53291;51.680;8.344;2022-08-27T17:58:08;6.35;;;2.10;;
66472;SDS011;53291;51.680;8.344;2022-08-27T18:00:33;8.23;;;2.78;;
66472;SDS011;53291;51.680;8.344;2022-08-27T18:02:59;7.60;;;3.05;;
66472;SDS011;53291;51.680;8.344;2022-08-27T18:05:26;6.88;;;3.03;;
66472;SDS011;53291;51.680;8.344;2022-08-27T18:07:52;5.88;;;2.60;;
66472;SDS011;53291;51.680;8.344;2022-08-27T18:10:21;4.63;;;2.55;;
66472;SDS011;53291;51.680;8.344;2022-08-27T18:12:49;9.52;;;2.92;;
66472;SDS011;53291;51.680;8.344;2022-08-27T18:15:17;4.65;;;2.42;;
66472;SDS011;53291;51.680;8.344;2022-08-27T18:17:46;7.55;;;3.20;;
66472;SDS011;53291;51.680;8.344;2022-08-27T18:20:13;4.35;;;1.95;;
66472;SDS011;53291;51.680;8.344;2022-08-27T18:22:40;6.35;;;1.92;;
66472;SDS011;53291;51.680;8.344;2022-08-27T18:25:06;5.45;;;2.47;;
66472;SDS011;53291;51.680;8.344;2022-08-27T18:27:33;13.50;;;6.88;;
66472;SDS011;53291;51.680;8.344;2022-08-27T18:29:59;21.88;;;9.07;;
66472;SDS011;53291;51.680;8.344;2022-08-27T18:32:25;14.80;;;6.85;;
66472;SDS011;53291;51.680;8.344;2022-08-27T18:34:51;16.67;;;6.75;;
66472;SDS011;53291;51.680;8.344;2022-08-27T18:37:16;9.65;;;3.50;;
66472;SDS011;53291;51.680;8.344;2022-08-27T18:39:42;10.52;;;4.13;;
66472;SDS011;53291;51.680;8.344;2022-08-27T18:42:09;8.48;;;1.85;;
66472;SDS011;53291;51.680;8.344;2022-08-27T18:44:37;7.85;;;3.10;;
66472;SDS011;53291;51.680;8.344;2022-08-27T18:47:04;6.35;;;1.90;;
66472;SDS011;53291;51.680;8.344;2022-08-27T18:49:30;5.38;;;1.70;;
66472;SDS011;53291;51.680;8.344;2022-08-27T18:51:55;5.63;;;2.58;;
66472;SDS011;53291;51.680;8.344;2022-08-27T18:54:21;6.13;;;2.53;;
66472;SDS011;53291;51.680;8.344;2022-08-27T18:56:48;6.53;;;2.58;;
66472;SDS011;53291;51.680;8.344;2022-08-27T18:59:14;6.95;;;2.45;;
66472;SDS011;53291;51.680;8.344;2022-08-27T19:01:40;5.95;;;2.08;;
66472;SDS011;53291;51.680;8.344;2022-08-27T19:04:06;5.30;;;2.60;;
66472;SDS011;53291;51.680;8.344;2022-08-27T19:06:32;4.30;;;2.08;;
66472;SDS011;53291;51.680;8.344;2022-08-27T19:08:57;11.70;;;3.33;;
66472;SDS011;53291;51.680;8.344;2022-08-27T19:11:23;8.90;;;3.33;;
66472;SDS011;53291;51.680;8.344;2022-08-27T19:13:48;10.43;;;4.30;;
66472;SDS011;53291;51.680;8.344;2022-08-27T19:16:19;8.75;;;2.95;;
66472;SDS011;53291;51.680;8.344;2022-08-27T19:18:48;7.43;;;2.72;;
66472;SDS011;53291;51.680;8.344;2022-08-27T19:21:15;6.13;;;2.72;;
66472;SDS011;53291;51.680;8.344;2022-08-27T19:23:41;6.68;;;2.70;;
66472;SDS011;53291;51.680;8.344;2022-08-27T19:26:10;5.65;;;2.67;;
66472;SDS011;53291;51.680;8.344;2022-08-27T19:28:40;11.82;;;3.50;;
66472;SDS011;53291;51.680;8.344;2022-08-27T19:31:09;9.75;;;2.90;;
66472;SDS011;53291;51.680;8.344;2022-08-27T19:33:36;10.38;;;3.40;;
66472;SDS011;53291;51.680;8.344;2022-08-27T19:36:02;5.72;;;2.78;;
66472;SDS011;53291;51.680;8.344;2022-08-27T19:38:29;6.57;;;3.05;;
66472;SDS011;53291;51.680;8.344;2022-08-27T19:40:56;8.73;;;2.65;;
66472;SDS011;53291;51.680;8.344;2022-08-27T19:43:22;7.47;;;3.90;;
66472;SDS011;53291;51.680;8.344;2022-08-27T19:45:47;10.57;;;2.92;;
66472;SDS011;53291;51.680;8.344;2022-08-27T19:48:13;6.65;;;4.07;;
66472;SDS011;53291;51.680;8.344;2022-08-27T19:50:40;7.40;;;2.80;;
66472;SDS011;53291;51.680;8.344;2022-08-27T19:53:06;5.60;;;2.53;;
66472;SDS011;53291;51.680;8.344;2022-08-27T19:55:31;7.20;;;2.38;;
66472;SDS011;53291;51.680;8.344;2022-08-27T19:57:56;5.78;;;2.65;;
66472;SDS011;53291;51.680;8.344;2022-08-27T20:00:22;7.90;;;2.75;;
66472;SDS011;53291;51.680;8.344;2022-08-27T20:02:49;5.88;;;2.10;;
66472;SDS011;53291;51.680;8.344;2022-08-27T20:05:15;5.28;;;2.00;;
66472;SDS011;53291;51.680;8.344;2022-08-27T20:07:41;5.75;;;2.00;;
66472;SDS011;53291;51.680;8.344;2022-08-27T20:10:07;5.38;;;2.08;;
66472;SDS011;53291;51.680;8.344;2022-08-27T20:12:33;4.72;;;1.55;;
66472;SDS011;53291;51.680;8.344;2022-08-27T20:14:58;5.97;;;1.35;;
66472;SDS011;53291;51.680;8.344;2022-08-27T20:17:23;5.32;;;2.17;;
66472;SDS011;53291;51.680;8.344;2022-08-27T20:19:49;6.93;;;1.90;;
66472;SDS011;53291;51.680;8.344;2022-08-27T20:22:14;4.93;;;2.05;;
66472;SDS011;53291;51.680;8.344;2022-08-27T20:24:39;4.32;;;1.35;;
66472;SDS011;53291;51.680;8.344;2022-08-27T20:27:05;5.07;;;3.42;;
66472;SDS011;53291;51.680;8.344;2022-08-27T20:29:30;8.75;;;3.58;;
66472;SDS011;53291;51.680;8.344;2022-08-27T20:31:58;9.82;;;4.45;;
66472;SDS011;53291;51.680;8.344;2022-08-27T20:34:24;5.85;;;2.25;;
66472;SDS011;53291;51.680;8.344;2022-08-27T20:36:49;5.95;;;2.65;;
66472;SDS011;53291;51.680;8.344;2022-08-27T20:39:15;6.38;;;2.45;;
66472;SDS011;53291;51.680;8.344;2022-08-27T20:41:41;7.72;;;3.25;;
66472;SDS011;53291;51.680;8.344;2022-08-27T20:44:07;4.90;;;2.75;;
66472;SDS011;53291;51.680;8.344;2022-08-27T20:46:32;5.18;;;2.45;;
66472;SDS011;53291;51.680;8.344;2022-08-27T20:48:58;5.47;;;2.30;;
66472;SDS011;53291;51.680;8.344;2022-08-27T20:51:24;4.90;;;2.28;;
66472;SDS011;53291;51.680;8.344;2022-08-27T20:53:50;7.03;;;2.10;;
66472;SDS011;53291;51.680;8.344;2022-08-27T20:56:16;6.70;;;2.30;;
66472;SDS011;53291;51.680;8.344;2022-08-27T20:58:42;6.40;;;2.90;;
66472;SDS011;53291;51.680;8.344;2022-08-27T21:01:26;6.32;;;2.03;;
66472;SDS011;53291;51.680;8.344;2022-08-27T21:03:52;6.78;;;2.22;;
66472;SDS011;53291;51.680;8.344;2022-08-27T21:06:18;4.25;;;1.98;;
66472;SDS011;53291;51.680;8.344;2022-08-27T21:08:44;5.43;;;1.77;;
66472;SDS011;53291;51.680;8.344;2022-08-27T21:11:11;6.13;;;2.45;;
66472;SDS011;53291;51.680;8.344;2022-08-27T21:13:38;4.68;;;1.52;;
66472;SDS011;53291;51.680;8.344;2022-08-27T21:16:04;6.93;;;2.35;;
66472;SDS011;53291;51.680;8.344;2022-08-27T21:18:29;6.18;;;1.90;;
66472;SDS011;53291;51.680;8.344;2022-08-27T21:20:58;6.53;;;2.22;;
66472;SDS011;53291;51.680;8.344;2022-08-27T21:23:25;5.80;;;1.60;;
66472;SDS011;53291;51.680;8.344;2022-08-27T21:25:52;6.72;;;1.67;;
66472;SDS011;53291;51.680;8.344;2022-08-27T21:28:18;4.70;;;1.80;;
66472;SDS011;53291;51.680;8.344;2022-08-27T21:30:44;6.15;;;1.88;;
66472;SDS011;53291;51.680;8.344;2022-08-27T21:33:09;4.85;;;1.83;;
66472;SDS011;53291;51.680;8.344;2022-08-27T21:35:35;4.85;;;1.85;;
66472;SDS011;53291;51.680;8.344;2022-08-27T21:38:01;6.65;;;1.80;;
66472;SDS011;53291;51.680;8.344;2022-08-27T21:40:26;3.95;;;1.60;;
66472;SDS011;53291;51.680;8.344;2022-08-27T21:42:53;6.60;;;1.95;;
66472;SDS011;53291;51.680;8.344;2022-08-27T21:45:20;5.28;;;1.63;;
66472;SDS011;53291;51.680;8.344;2022-08-27T21:47:46;5.22;;;1.65;;
66472;SDS011;53291;51.680;8.344;2022-08-27T21:50:11;6.10;;;1.98;;
66472;SDS011;53291;51.680;8.344;2022-08-27T21:52:37;5.05;;;1.63;;
66472;SDS011;53291;51.680;8.344;2022-08-27T21:55:03;5.60;;;1.73;;
66472;SDS011;53291;51.680;8.344;2022-08-27T21:57:29;6.60;;;1.90;;
66472;SDS011;53291;51.680;8.344;2022-08-27T21:59:54;6.53;;;2.10;;
66472;SDS011;53291;51.680;8.344;2022-08-27T22:02:20;5.57;;;1.20;;
66472;SDS011;53291;51.680;8.344;2022-08-27T22:04:47;5.53;;;1.80;;
66472;SDS011;53291;51.680;8.344;2022-08-27T22:07:12;6.70;;;1.92;;
66472;SDS011;53291;51.680;8.344;2022-08-27T22:09:38;9.25;;;1.45;;
66472;SDS011;53291;51.680;8.344;2022-08-27T22:12:03;6.05;;;2.03;;
66472;SDS011;53291;51.680;8.344;2022-08-27T22:14:29;6.07;;;1.30;;
66472;SDS011;53291;51.680;8.344;2022-08-27T22:16:55;5.78;;;1.95;;
66472;SDS011;53291;51.680;8.344;2022-08-27T22:19:20;5.72;;;1.95;;
66472;SDS011;53291;51.680;8.344;2022-08-27T22:21:46;6.20;;;1.85;;
66472;SDS011;53291;51.680;8.344;2022-08-27T22:24:12;6.72;;;1.77;;
66472;SDS011;53291;51.680;8.344;2022-08-27T22:26:38;9.90;;;1.55;;
66472;SDS011;53291;51.680;8.344;2022-08-27T22:29:03;5.68;;;1.38;;
66472;SDS011;53291;51.680;8.344;2022-08-27T22:31:29;8.88;;;2.42;;
66472;SDS011;53291;51.680;8.344;2022-08-27T22:33:56;7.35;;;2.35;;
66472;SDS011;53291;51.680;8.344;2022-08-27T22:36:22;6.57;;;2.30;;
66472;SDS011;53291;51.680;8.344;2022-08-27T22:38:47;5.18;;;2.50;;
66472;SDS011;53291;51.680;8.344;2022-08-27T22:41:13;8.80;;;2.42;;
66472;SDS011;53291;51.680;8.344;2022-08-27T22:43:38;7.80;;;2.50;;
66472;SDS011;53291;51.680;8.344;2022-08-27T22:46:04;8.50;;;1.95;;
66472;SDS011;53291;51.680;8.344;2022-08-27T22:48:29;6.82;;;2.28;;
66472;SDS011;53291;51.680;8.344;2022-08-27T22:50:55;9.65;;;2.22;;
66472;SDS011;53291;51.680;8.344;2022-08-27T22:53:20;8.70;;;2.67;;
66472;SDS011;53291;51.680;8.344;2022-08-27T22:55:45;6.55;;;2.33;;
66472;SDS011;53291;51.680;8.344;2022-08-27T22:58:11;10.75;;;2.80;;
66472;SDS011;53291;51.680;8.344;2022-08-27T23:00:37;7.25;;;2.25;;
66472;SDS011;53291;51.680;8.344;2022-08-27T23:03:04;12.50;;;4.68;;
66472;SDS011;53291;51.680;8.344;2022-08-27T23:05:33;12.50;;;4.22;;
66472;SDS011;53291;51.680;8.344;2022-08-27T23:08:01;18.00;;;7.78;;
66472;SDS011;53291;51.680;8.344;2022-08-27T23:10:28;17.48;;;7.60;;
66472;SDS011;53291;51.680;8.344;2022-08-27T23:12:54;14.02;;;4.80;;
66472;SDS011;53291;51.680;8.344;2022-08-27T23:15:22;15.27;;;5.90;;
66472;SDS011;53291;51.680;8.344;2022-08-27T23:17:50;11.23;;;4.03;;